Hlavní strana
METAR-TAF:

METAR-TAF

Letiště :

Irene, Jihoafrická republika

zeměpisná šířka: 25-54-36S, zeměpisná délka: 28-12-40E, výška: 1523 m

Aktuální stav počasí

Zpráva byla vytvořena před 18 hodinami a 6 minutami, v 12:12 UTC
Západoseverozápadní vítr 14 kt
Teplota 30°C
Vlhkost vzduchu 35%
Tlak 1019 hPa
Viditelnost 10 km a více
Polojasno ve výšce 3500 ft, Vertikální cumulus.

METAR: FAIR 151212Z 30014KT 9999 SCT035TCU 30/13 Q1019

Čas: 08:18 (06:18 UTC)


TAF: chybějící

Stav a předpovědi počasí z více než 4 000 letišť (zprávy METAR a TAF).

Červené a žluté tečky na mapě představují dostupné meteorologické stanice.

Když kurzor umístíte na tečku, zobrazí se název stanice.

Pak kliknutím zobrazíte stav a předpověď počasí.

Chcete-li změnit mapu, kliknutím na zelené tlačítko se znaménkem +mapu přiblížíte, kliknutím na zelené tlačítko se znaménkem – mapu oddálíte a kliknutím na zelené šipky přejdete na sousední mapy.


METAR-TAF: